Time;durP1;ratioP1;P1;durP2;ratioP2;P2;SDS_P1;SDS_P2;PMS_P1;PMS_P2;Temp;Humidity;BMP_temperature;BMP_pressure;BME280_temperature;BME280_humidity;BME280_pressure;Samples;Min_cycle;Max_cycle;Signal;HPM_P1;HPM_P2
2021/12/02 00:01:07;;;;;;;3.95;0.93;;;7.30;99.90;;;;;;4995098;28;20041;-61
2021/12/02 00:03:34;;;;;;;4.07;1.35;;;7.30;99.90;;;;;;4993681;28;20022;-61
2021/12/02 00:06:00;;;;;;;5.55;1.35;;;7.20;99.90;;;;;;4992762;28;20071;-60
2021/12/02 00:08:26;;;;;;;3.63;0.88;;;7.20;99.90;;;;;;4994973;28;20033;-60
2021/12/02 00:10:51;;;;;;;1.25;0.70;;;7.30;99.90;;;;;;4994363;28;20100;-61
2021/12/02 00:13:22;;;;;;;2.38;0.70;;;7.30;99.90;;;;;;4995028;28;20432;-61
2021/12/02 00:23:45;;;;;;;1.08;0.50;;;7.30;99.90;;;;;;4994836;28;20049;-60
2021/12/02 00:26:20;;;;;;;1.75;0.60;;;7.30;99.90;;;;;;4994417;28;20445;-61
2021/12/02 00:28:51;;;;;;;2.15;0.68;;;7.20;99.90;;;;;;4993035;28;20431;-61
2021/12/02 00:31:19;;;;;;;1.17;0.50;;;7.20;99.90;;;;;;4994367;28;20490;-61
2021/12/02 00:33:48;;;;;;;1.00;0.52;;;7.30;99.90;;;;;;4992799;28;20038;-61
2021/12/02 00:36:16;;;;;;;1.33;0.60;;;7.30;99.90;;;;;;4994152;28;20034;-61
2021/12/02 00:38:42;;;;;;;5.57;0.38;;;7.30;99.90;;;;;;4992457;28;20037;-61
2021/12/02 00:41:13;;;;;;;0.57;0.50;;;7.30;99.90;;;;;;4994310;28;20030;-61
2021/12/02 00:43:40;;;;;;;1.05;0.52;;;7.30;99.90;;;;;;4994418;28;20022;-60
2021/12/02 00:46:10;;;;;;;1.63;0.63;;;7.30;99.90;;;;;;4994602;28;20058;-61
2021/12/02 00:48:37;;;;;;;1.83;0.98;;;7.30;99.90;;;;;;4993184;28;20069;-61
2021/12/02 00:51:04;;;;;;;3.63;1.17;;;7.30;99.90;;;;;;4993589;28;20030;-61
2021/12/02 00:53:32;;;;;;;2.88;1.40;;;7.10;99.90;;;;;;4994181;28;20034;-61
2021/12/02 00:56:03;;;;;;;2.28;1.38;;;7.20;99.90;;;;;;4991160;28;20026;-61
2021/12/02 00:58:30;;;;;;;2.22;1.05;;;7.20;99.90;;;;;;4974456;28;20054;-61
2021/12/02 01:00:57;;;;;;;5.07;1.75;;;7.10;99.90;;;;;;4973883;28;20030;-60
2021/12/02 01:03:24;;;;;;;3.92;1.85;;;7.20;99.90;;;;;;4974438;28;20042;-61
2021/12/02 01:05:51;;;;;;;4.50;1.45;;;7.10;99.90;;;;;;4973675;28;20038;-60
2021/12/02 01:08:17;;;;;;;3.00;1.17;;;7.20;99.90;;;;;;4974364;28;20110;-60
2021/12/02 01:10:43;;;;;;;2.47;2.28;;;7.20;99.90;;;;;;4974090;28;20071;-61
2021/12/02 01:13:08;;;;;;;1.85;0.93;;;7.20;99.90;;;;;;4956623;28;20440;-61
2021/12/02 01:15:34;;;;;;;2.20;1.10;;;7.20;99.90;;;;;;4956692;28;20042;-60
2021/12/02 01:18:00;;;;;;;2.80;1.00;;;7.10;99.90;;;;;;4973729;28;20041;-61
2021/12/02 01:20:26;;;;;;;3.67;1.08;;;7.10;99.90;;;;;;4974157;28;20037;-61
2021/12/02 01:22:53;;;;;;;1.50;0.77;;;7.10;99.90;;;;;;4973536;28;20037;-61
2021/12/02 01:25:19;;;;;;;1.70;1.05;;;7.10;99.90;;;;;;4973695;28;20061;-61
2021/12/02 01:27:48;;;;;;;6.57;1.83;;;7.10;99.90;;;;;;4973560;28;20089;-61
2021/12/02 01:30:14;;;;;;;4.78;1.77;;;7.10;99.90;;;;;;4974077;28;20101;-60
2021/12/02 01:32:40;;;;;;;9.45;1.35;;;7.10;99.90;;;;;;4974054;28;20034;-60
2021/12/02 01:35:07;;;;;;;4.40;1.63;;;7.10;99.90;;;;;;4973309;28;20022;-60
2021/12/02 01:37:33;;;;;;;5.22;0.88;;;7.10;99.90;;;;;;4956533;28;20026;-61
2021/12/02 01:39:59;;;;;;;6.25;1.08;;;7.10;99.90;;;;;;4973162;28;20042;-61
2021/12/02 01:42:28;;;;;;;1.50;0.80;;;7.10;99.90;;;;;;4973495;28;20035;-60
2021/12/02 01:44:57;;;;;;;2.40;0.95;;;7.10;99.90;;;;;;4955702;28;20114;-61
2021/12/02 01:47:26;;;;;;;2.05;0.82;;;7.10;99.90;;;;;;4973679;28;20026;-60
2021/12/02 01:49:56;;;;;;;3.63;0.98;;;7.10;99.90;;;;;;4972920;28;20034;-61
2021/12/02 01:52:27;;;;;;;2.60;1.05;;;7.00;99.90;;;;;;4973491;28;20035;-61
2021/12/02 01:55:16;;;;;;;2.13;0.90;;;7.10;99.90;;;;;;4972752;28;20031;-60
2021/12/02 01:57:59;;;;;;;2.10;1.13;;;6.90;99.90;;;;;;4972694;28;20054;-61
2021/12/02 02:00:33;;;;;;;3.60;1.02;;;6.90;99.90;;;;;;4973356;28;20030;-61
2021/12/02 02:03:02;;;;;;;2.05;0.73;;;6.90;99.90;;;;;;4955421;28;20169;-60
2021/12/02 02:05:28;;;;;;;1.50;0.55;;;6.90;99.90;;;;;;4973326;28;20030;-63
2021/12/02 02:08:10;;;;;;;1.08;0.40;;;7.00;99.90;;;;;;4955385;28;20035;-61
2021/12/02 02:10:43;;;;;;;1.73;0.53;;;6.90;99.90;;;;;;4973321;28;20110;-61
2021/12/02 02:13:10;;;;;;;5.45;0.60;;;7.00;99.90;;;;;;4972679;28;20290;-61
2021/12/02 02:15:38;;;;;;;5.32;0.65;;;7.00;99.90;;;;;;4973285;28;20074;-60
2021/12/02 02:18:23;;;;;;;3.50;0.50;;;7.00;99.90;;;;;;4972539;28;20088;-61
2021/12/02 02:21:02;;;;;;;2.20;0.38;;;6.90;99.90;;;;;;4972491;28;20030;-61
2021/12/02 02:23:31;;;;;;;2.17;0.60;;;7.00;99.90;;;;;;4955896;28;20031;-62
2021/12/02 02:25:58;;;;;;;3.45;0.60;;;7.00;99.90;;;;;;4972557;28;20023;-61
2021/12/02 02:28:23;;;;;;;1.85;0.65;;;7.00;99.90;;;;;;4955652;28;20041;-62
2021/12/02 02:30:49;;;;;;;0.82;0.57;;;7.00;99.90;;;;;;4972582;28;20027;-60
2021/12/02 02:33:18;;;;;;;7.05;0.45;;;7.00;99.90;;;;;;4973052;28;20026;-61
2021/12/02 02:35:45;;;;;;;1.38;0.40;;;7.00;99.90;;;;;;4972769;28;20023;-60
2021/12/02 02:38:11;;;;;;;1.15;0.40;;;7.00;99.90;;;;;;4972476;28;20019;-61
2021/12/02 02:40:40;;;;;;;1.98;0.47;;;7.10;99.90;;;;;;4973002;28;20030;-60
2021/12/02 02:43:08;;;;;;;1.58;0.40;;;7.00;99.90;;;;;;4972489;28;20031;-60
2021/12/02 02:45:34;;;;;;;6.95;1.05;;;6.90;99.90;;;;;;4955511;28;20031;-60
2021/12/02 02:48:00;;;;;;;1.45;0.40;;;6.90;99.90;;;;;;4972311;28;20034;-61
2021/12/02 02:50:26;;;;;;;1.67;0.45;;;7.00;99.90;;;;;;4955234;28;20042;-60
2021/12/02 02:53:11;;;;;;;2.80;0.45;;;7.00;99.90;;;;;;4957053;28;20085;-60
2021/12/02 02:55:37;;;;;;;3.47;0.40;;;6.90;99.90;;;;;;4976960;28;20030;-61
2021/12/02 02:58:22;;;;;;;3.10;0.57;;;6.90;99.90;;;;;;4976312;28;20053;-61
2021/12/02 03:01:00;;;;;;;0.90;0.40;;;6.80;99.90;;;;;;4976454;28;20058;-76
2021/12/02 03:03:44;;;;;;;3.45;0.88;;;6.90;99.90;;;;;;4976941;28;20128;-60
2021/12/02 03:09:04;;;;;;;4.15;0.60;;;6.80;99.90;;;;;;4976152;28;20045;-61
2021/12/02 03:11:39;;;;;;;3.80;0.57;;;6.70;99.90;;;;;;4976511;28;20470;-60
2021/12/02 03:14:11;;;;;;;3.58;1.08;;;6.70;99.90;;;;;;4975962;28;20081;-60
2021/12/02 03:16:47;;;;;;;1.48;0.60;;;6.70;99.90;;;;;;4976568;28;20033;-62
2021/12/02 03:19:15;;;;;;;1.85;0.88;;;6.70;99.90;;;;;;4958245;28;20027;-61
2021/12/02 03:21:41;;;;;;;3.58;0.50;;;6.70;99.90;;;;;;4976017;28;20026;-61
2021/12/02 03:24:07;;;;;;;2.72;0.65;;;6.70;99.90;;;;;;4958170;28;20079;-62
2021/12/02 03:26:33;;;;;;;8.05;1.40;;;6.60;99.90;;;;;;4975939;28;20042;-61
2021/12/02 03:29:00;;;;;;;2.17;0.40;;;6.60;99.90;;;;;;4977271;28;20469;-62
2021/12/02 03:31:25;;;;;;;4.82;0.85;;;6.60;99.90;;;;;;4976823;28;20035;-61
2021/12/02 03:33:51;;;;;;;4.13;0.75;;;6.70;99.90;;;;;;4975760;28;20127;-62
2021/12/02 03:36:18;;;;;;;4.25;0.52;;;6.60;99.90;;;;;;4976124;28;20027;-61
2021/12/02 03:38:44;;;;;;;3.90;0.57;;;6.60;99.90;;;;;;4975763;28;20464;-61
2021/12/02 03:41:10;;;;;;;2.22;1.40;;;6.60;99.90;;;;;;4958071;28;20202;-60
2021/12/02 03:43:42;;;;;;;2.30;0.52;;;6.60;99.90;;;;;;4976038;28;20030;-60
2021/12/02 03:46:12;;;;;;;3.28;1.33;;;6.60;99.90;;;;;;4958007;28;20027;-60
2021/12/02 03:48:38;;;;;;;4.15;0.55;;;6.60;99.90;;;;;;4975603;28;20062;-60
2021/12/02 03:51:06;;;;;;;1.95;0.63;;;6.60;99.90;;;;;;4975162;28;20457;-60
2021/12/02 03:53:32;;;;;;;6.28;0.73;;;6.60;99.90;;;;;;4975782;28;20105;-60
2021/12/02 03:55:58;;;;;;;3.47;0.90;;;6.60;99.90;;;;;;4974780;28;20027;-61
2021/12/02 03:58:23;;;;;;;3.15;0.63;;;6.60;99.90;;;;;;4958087;28;20310;-62
2021/12/02 04:00:49;;;;;;;4.60;0.57;;;6.60;99.90;;;;;;4975172;28;20035;-60
2021/12/02 04:03:15;;;;;;;2.85;0.70;;;6.60;99.90;;;;;;4956909;28;20034;-61
2021/12/02 04:05:40;;;;;;;3.75;1.63;;;6.50;99.90;;;;;;4974960;28;20078;-61
2021/12/02 04:08:07;;;;;;;3.60;0.50;;;6.60;99.90;;;;;;4974889;28;20461;-60
2021/12/02 04:10:33;;;;;;;4.15;0.60;;;6.60;99.90;;;;;;4975574;28;20187;-61
2021/12/02 04:15:49;;;;;;;3.00;0.50;;;6.60;99.90;;;;;;4975331;28;20078;-60
2021/12/02 04:18:15;;;;;;;2.55;0.60;;;6.50;99.90;;;;;;4957517;28;20035;-60
2021/12/02 04:20:40;;;;;;;3.85;0.52;;;6.50;99.90;;;;;;4975441;28;20041;-60
2021/12/02 04:23:06;;;;;;;5.43;0.73;;;6.50;99.90;;;;;;4974700;28;20118;-60
2021/12/02 04:25:32;;;;;;;2.45;0.40;;;6.40;99.90;;;;;;4975258;28;20035;-61
2021/12/02 04:27:57;;;;;;;4.88;1.30;;;6.40;99.90;;;;;;4974766;28;20067;-60
2021/12/02 04:30:25;;;;;;;4.50;0.70;;;6.40;99.90;;;;;;4957690;28;20534;-61
2021/12/02 04:32:52;;;;;;;5.53;0.70;;;6.50;99.90;;;;;;4974821;28;20360;-61
2021/12/02 04:35:19;;;;;;;3.67;1.65;;;6.40;99.90;;;;;;4974741;28;20031;-61
2021/12/02 04:37:46;;;;;;;2.65;1.08;;;6.30;99.90;;;;;;4974761;28;20031;-60
2021/12/02 04:40:16;;;;;;;5.75;1.08;;;6.20;99.90;;;;;;4973902;28;20566;-60
2021/12/02 04:42:42;;;;;;;4.53;0.70;;;6.20;99.90;;;;;;4974659;28;20199;-60
2021/12/02 04:45:08;;;;;;;1.83;1.63;;;6.20;99.90;;;;;;4974102;28;20110;-60
2021/12/02 04:47:34;;;;;;;4.13;0.70;;;6.10;99.90;;;;;;4957133;28;20026;-60
2021/12/02 04:50:00;;;;;;;3.20;0.80;;;6.20;99.90;;;;;;4973778;28;20432;-61
2021/12/02 04:52:26;;;;;;;2.67;0.65;;;6.20;99.90;;;;;;4974169;28;20114;-61
2021/12/02 04:54:51;;;;;;;4.38;1.48;;;6.10;99.90;;;;;;4974243;28;20539;-61
2021/12/02 04:57:17;;;;;;;5.15;1.30;;;6.10;99.90;;;;;;4977884;28;20101;-61
2021/12/02 04:59:43;;;;;;;10.13;1.05;;;6.00;99.90;;;;;;4993858;28;20042;-60
2021/12/02 05:02:09;;;;;;;1.73;0.57;;;5.90;99.90;;;;;;4991824;28;20121;-61
2021/12/02 05:04:34;;;;;;;3.42;0.98;;;5.90;99.90;;;;;;4992280;28;20026;-60
2021/12/02 05:07:00;;;;;;;7.25;1.00;;;5.90;99.90;;;;;;4992738;28;20026;-61
2021/12/02 05:09:26;;;;;;;2.10;0.90;;;5.80;99.90;;;;;;4993240;28;20031;-60
2021/12/02 05:11:51;;;;;;;4.70;0.60;;;5.80;99.90;;;;;;4992186;28;20038;-60
2021/12/02 05:14:17;;;;;;;4.22;0.95;;;5.80;99.90;;;;;;4991642;28;20029;-60
2021/12/02 05:16:43;;;;;;;3.85;0.85;;;5.80;99.90;;;;;;4992706;28;20037;-61
2021/12/02 05:19:08;;;;;;;2.47;0.52;;;5.80;99.90;;;;;;4992679;28;20038;-60
2021/12/02 05:21:34;;;;;;;2.90;0.73;;;5.80;99.90;;;;;;4992150;28;20458;-60
2021/12/02 05:24:00;;;;;;;5.18;0.60;;;5.80;99.90;;;;;;4992735;28;20030;-61
2021/12/02 05:26:26;;;;;;;4.72;0.82;;;5.70;99.90;;;;;;4993484;28;20031;-61
2021/12/02 05:28:53;;;;;;;3.03;0.85;;;5.80;99.90;;;;;;4992913;28;20391;-60
2021/12/02 05:31:20;;;;;;;5.15;0.90;;;5.80;99.90;;;;;;4991279;28;20100;-61
2021/12/02 05:33:45;;;;;;;5.05;0.85;;;5.80;99.90;;;;;;4992973;28;20459;-61
2021/12/02 05:36:11;;;;;;;5.25;0.95;;;5.80;99.90;;;;;;4992649;28;20026;-61
2021/12/02 05:38:37;;;;;;;3.35;0.70;;;5.70;99.90;;;;;;4992970;28;20030;-61
2021/12/02 05:41:04;;;;;;;3.08;0.80;;;5.80;99.90;;;;;;4992457;28;20034;-61
2021/12/02 05:43:30;;;;;;;5.15;1.20;;;5.80;99.90;;;;;;4993121;28;20034;-60
2021/12/02 05:45:56;;;;;;;4.07;0.90;;;5.70;99.90;;;;;;4991644;28;20030;-60
2021/12/02 05:48:22;;;;;;;8.10;1.45;;;5.70;99.90;;;;;;4992207;28;20443;-60
2021/12/02 05:50:49;;;;;;;8.98;1.35;;;5.70;99.90;;;;;;4992805;28;20042;-60
2021/12/02 05:53:15;;;;;;;10.20;1.42;;;5.80;99.90;;;;;;4990789;28;20110;-61
2021/12/02 05:55:41;;;;;;;7.75;1.35;;;5.80;99.90;;;;;;4992288;28;20114;-60
2021/12/02 05:58:07;;;;;;;6.10;0.77;;;5.80;99.90;;;;;;4990179;28;20061;-61
2021/12/02 06:00:34;;;;;;;4.57;1.15;;;5.80;99.90;;;;;;4992597;28;20463;-61
2021/12/02 06:02:59;;;;;;;5.25;1.50;;;5.80;99.90;;;;;;4990715;28;20098;-69
2021/12/02 06:05:26;;;;;;;3.53;0.75;;;5.70;99.90;;;;;;4992585;28;20096;-61
2021/12/02 06:07:53;;;;;;;3.05;0.75;;;5.70;99.90;;;;;;4992530;28;20053;-62
2021/12/02 06:10:19;;;;;;;3.88;0.90;;;5.70;99.90;;;;;;4991698;28;20680;-61
2021/12/02 06:12:45;;;;;;;2.45;0.80;;;5.70;99.90;;;;;;4992401;28;20027;-61
2021/12/02 06:15:12;;;;;;;8.88;1.02;;;5.60;99.90;;;;;;4991905;28;20033;-60
2021/12/02 06:17:38;;;;;;;3.97;1.17;;;5.70;99.90;;;;;;4992221;28;20053;-61
2021/12/02 06:20:05;;;;;;;2.17;0.60;;;5.60;99.90;;;;;;4991672;28;20038;-61
2021/12/02 06:22:31;;;;;;;4.05;0.80;;;5.60;99.90;;;;;;4990792;28;20422;-62
2021/12/02 06:27:46;;;;;;;3.72;0.88;;;5.60;99.90;;;;;;4991500;28;20486;-60
2021/12/02 06:30:14;;;;;;;1.58;0.85;;;5.50;99.90;;;;;;4975157;28;20271;-60
2021/12/02 06:32:40;;;;;;;5.03;1.08;;;5.50;99.90;;;;;;4992232;28;20022;-61
2021/12/02 06:35:07;;;;;;;4.70;0.98;;;5.60;99.90;;;;;;4991544;28;20030;-61
2021/12/02 06:37:33;;;;;;;4.00;1.20;;;5.50;99.90;;;;;;4990735;28;20038;-61
2021/12/02 06:39:59;;;;;;;4.72;1.10;;;5.50;99.90;;;;;;4991684;28;20368;-62
2021/12/02 06:42:25;;;;;;;2.72;1.05;;;5.50;99.90;;;;;;4991465;28;20080;-61
2021/12/02 06:44:50;;;;;;;4.43;2.15;;;5.50;99.90;;;;;;4992107;28;20033;-61
2021/12/02 06:47:16;;;;;;;3.20;1.00;;;5.60;99.90;;;;;;4991167;28;20034;-62
2021/12/02 06:49:42;;;;;;;1.73;0.95;;;5.60;99.90;;;;;;4990138;28;20034;-61
2021/12/02 06:52:14;;;;;;;4.32;1.17;;;5.70;99.90;;;;;;4989656;28;20456;-60
2021/12/02 06:54:40;;;;;;;6.63;1.40;;;5.60;99.90;;;;;;4991674;28;20395;-61
2021/12/02 06:57:06;;;;;;;4.53;1.30;;;5.60;99.90;;;;;;4989535;28;20054;-62
2021/12/02 06:59:32;;;;;;;4.28;1.65;;;5.60;99.90;;;;;;4991669;28;20058;-60
2021/12/02 07:01:58;;;;;;;6.00;1.50;;;5.60;99.90;;;;;;4991402;28;20037;-61
2021/12/02 07:04:23;;;;;;;7.28;1.27;;;5.60;99.90;;;;;;4989700;28;20125;-62
2021/12/02 07:06:49;;;;;;;5.15;1.58;;;5.60;99.90;;;;;;4972059;28;20092;-61
2021/12/02 07:09:16;;;;;;;4.53;0.73;;;5.60;99.90;;;;;;4989680;28;20125;-62
2021/12/02 07:11:42;;;;;;;4.03;0.70;;;5.60;99.90;;;;;;4991255;28;20030;-60
2021/12/02 07:14:17;;;;;;;2.28;0.85;;;6.00;99.90;;;;;;4990751;28;20081;-61
2021/12/02 07:16:43;;;;;;;3.50;0.63;;;5.60;99.90;;;;;;4991758;28;20085;-61
2021/12/02 07:19:10;;;;;;;6.20;1.33;;;5.50;99.90;;;;;;4989913;28;20030;-61
2021/12/02 07:21:39;;;;;;;4.07;1.00;;;5.50;99.90;;;;;;4991701;28;20442;-61
2021/12/02 07:24:09;;;;;;;4.97;1.20;;;5.50;99.90;;;;;;4991241;28;20026;-67
2021/12/02 07:26:40;;;;;;;5.75;1.20;;;5.50;99.90;;;;;;4991238;28;20134;-61
2021/12/02 07:29:06;;;;;;;7.68;1.40;;;5.50;99.90;;;;;;4990515;28;20318;-63
2021/12/02 07:31:33;;;;;;;3.03;1.00;;;5.60;99.90;;;;;;4989518;28;20029;-61
2021/12/02 07:34:01;;;;;;;7.20;1.75;;;5.50;99.90;;;;;;4989992;28;20479;-62
2021/12/02 07:36:28;;;;;;;5.80;1.30;;;5.60;99.90;;;;;;4990887;28;20038;-61
2021/12/02 07:38:54;;;;;;;5.82;1.23;;;5.60;99.90;;;;;;4992796;28;20030;-61
2021/12/02 07:41:20;;;;;;;4.63;0.98;;;5.60;99.90;;;;;;4992859;28;20037;-62
2021/12/02 07:43:46;;;;;;;2.03;0.90;;;5.60;99.90;;;;;;4994835;28;20030;-61
2021/12/02 07:46:11;;;;;;;4.10;1.35;;;5.60;99.90;;;;;;4993769;28;20053;-61
2021/12/02 07:48:37;;;;;;;4.15;0.88;;;5.60;99.90;;;;;;4994271;28;20494;-62
2021/12/02 07:51:09;;;;;;;2.90;1.42;;;5.70;99.90;;;;;;4994872;28;20109;-61
2021/12/02 07:53:35;;;;;;;6.22;1.63;;;5.60;99.90;;;;;;4994636;28;20057;-61
2021/12/02 07:56:04;;;;;;;3.35;1.27;;;5.70;99.90;;;;;;4990354;28;20046;-61
2021/12/02 07:58:30;;;;;;;3.65;1.20;;;5.70;99.90;;;;;;4974650;28;20109;-61
2021/12/02 08:01:01;;;;;;;4.70;1.92;;;5.50;99.90;;;;;;4957429;28;20037;-61
2021/12/02 08:03:27;;;;;;;1.47;0.93;;;5.60;99.90;;;;;;4974510;28;20475;-61
2021/12/02 08:05:53;;;;;;;6.32;1.20;;;5.70;99.90;;;;;;4957347;28;20109;-61
2021/12/02 08:08:19;;;;;;;2.55;0.98;;;5.70;99.90;;;;;;4956673;28;20026;-60
2021/12/02 08:10:45;;;;;;;2.63;0.93;;;6.30;99.90;;;;;;4956677;28;20030;-60
2021/12/02 08:13:13;;;;;;;3.42;1.00;;;9.50;99.90;;;;;;4974381;28;20031;-61
2021/12/02 08:15:42;;;;;;;4.63;1.27;;;7.80;99.90;;;;;;4957288;28;20031;-61
2021/12/02 08:18:08;;;;;;;6.90;1.17;;;7.00;99.90;;;;;;4974007;28;20023;-74
2021/12/02 08:20:35;;;;;;;10.73;1.80;;;6.70;99.90;;;;;;4974433;28;20027;-62
2021/12/02 08:23:01;;;;;;;4.47;1.30;;;6.40;99.90;;;;;;4974295;28;20037;-63
2021/12/02 08:25:28;;;;;;;3.83;1.23;;;6.30;99.90;;;;;;4972533;28;20023;-61
2021/12/02 08:27:59;;;;;;;0.98;0.70;;;6.10;99.90;;;;;;4974936;28;20027;-60
2021/12/02 08:30:27;;;;;;;1.48;1.02;;;5.90;99.90;;;;;;4957272;28;20341;-61
2021/12/02 08:32:57;;;;;;;3.45;1.30;;;5.90;99.90;;;;;;4940315;28;20046;-61
2021/12/02 08:35:24;;;;;;;2.50;0.98;;;5.90;99.90;;;;;;4956164;28;20031;-60
2021/12/02 08:37:52;;;;;;;5.10;1.17;;;5.80;99.90;;;;;;4957027;28;20043;-62
2021/12/02 08:40:29;;;;;;;2.83;0.98;;;5.80;99.90;;;;;;4973308;28;20027;-61
2021/12/02 08:42:54;;;;;;;2.25;1.00;;;5.80;99.90;;;;;;4974525;28;20384;-61
2021/12/02 08:45:20;;;;;;;2.63;1.10;;;5.80;99.90;;;;;;4973500;28;20031;-62
2021/12/02 08:47:46;;;;;;;1.40;0.90;;;6.20;99.90;;;;;;4974471;28;20110;-62
2021/12/02 08:50:17;;;;;;;4.03;1.30;;;6.00;99.90;;;;;;4955102;28;20077;-62
2021/12/02 08:52:44;;;;;;;4.30;1.38;;;6.10;99.90;;;;;;4973824;28;20535;-61
2021/12/02 08:55:11;;;;;;;7.00;1.60;;;6.00;99.90;;;;;;4972791;28;20061;-65
2021/12/02 08:57:36;;;;;;;2.17;1.30;;;6.00;99.90;;;;;;4973347;28;20500;-60
2021/12/02 09:00:05;;;;;;;4.07;1.08;;;6.00;99.90;;;;;;4973565;28;20038;-62
2021/12/02 09:02:31;;;;;;;6.97;1.67;;;7.30;99.90;;;;;;4973206;28;20134;-60
2021/12/02 09:04:57;;;;;;;1.98;1.15;;;7.50;99.90;;;;;;4973190;28;20137;-61
2021/12/02 09:07:24;;;;;;;5.68;1.67;;;6.90;99.90;;;;;;4972759;28;20057;-61
2021/12/02 09:09:49;;;;;;;4.03;1.10;;;6.70;99.90;;;;;;4955250;28;20062;-60
2021/12/02 09:12:15;;;;;;;1.20;0.93;;;6.50;99.90;;;;;;4973005;28;20065;-61
2021/12/02 09:14:41;;;;;;;4.93;1.20;;;6.40;99.90;;;;;;4973358;28;20162;-61
2021/12/02 09:17:06;;;;;;;2.90;1.30;;;6.30;99.90;;;;;;4973762;28;20499;-64
2021/12/02 09:19:32;;;;;;;5.05;1.30;;;6.30;99.90;;;;;;4955563;28;20039;-60
2021/12/02 09:21:58;;;;;;;3.40;2.03;;;6.40;99.90;;;;;;4973523;28;20085;-60
2021/12/02 09:24:25;;;;;;;5.05;1.80;;;6.30;99.90;;;;;;4955595;28;20479;-63
2021/12/02 09:26:52;;;;;;;4.65;1.55;;;6.40;99.90;;;;;;4955180;28;20037;-61
2021/12/02 09:29:19;;;;;;;3.22;1.55;;;6.30;99.90;;;;;;4972924;28;20062;-62
2021/12/02 09:31:46;;;;;;;4.28;1.38;;;6.30;99.90;;;;;;4973334;28;20026;-63
2021/12/02 09:34:12;;;;;;;3.05;1.70;;;6.40;99.90;;;;;;4943267;29;20032;-77
2021/12/02 09:36:38;;;;;;;2.28;1.17;;;6.40;99.90;;;;;;4937563;29;20035;-62
2021/12/02 09:39:07;;;;;;;3.67;1.70;;;6.40;99.90;;;;;;4954735;29;20038;-62
2021/12/02 09:41:33;;;;;;;4.85;1.50;;;6.40;99.90;;;;;;4953586;29;20047;-61
2021/12/02 09:43:59;;;;;;;4.40;1.70;;;6.50;99.90;;;;;;4953520;29;20031;-61
2021/12/02 09:46:25;;;;;;;2.35;1.17;;;6.50;99.90;;;;;;4935795;29;20086;-66
2021/12/02 09:48:53;;;;;;;2.00;1.30;;;6.40;99.90;;;;;;4936171;29;20134;-60
2021/12/02 09:51:25;;;;;;;4.78;1.73;;;6.40;99.90;;;;;;4935960;29;20027;-60
2021/12/02 09:56:24;;;;;;;6.95;1.73;;;6.50;99.90;;;;;;4953162;28;20177;-60
2021/12/02 09:58:53;;;;;;;2.20;1.55;;;6.50;99.90;;;;;;4953510;29;20035;-62
2021/12/02 10:01:22;;;;;;;2.53;1.50;;;6.50;99.90;;;;;;4934967;29;20153;-62
2021/12/02 10:03:53;;;;;;;3.42;1.88;;;6.40;99.90;;;;;;4935538;29;20035;-61
2021/12/02 10:06:29;;;;;;;4.03;1.70;;;6.40;99.90;;;;;;4935578;29;20383;-63
2021/12/02 10:09:05;;;;;;;4.13;1.55;;;6.50;99.90;;;;;;4953691;29;20483;-61
2021/12/02 10:11:37;;;;;;;3.78;1.98;;;6.40;99.90;;;;;;4935700;29;20121;-61
2021/12/02 10:14:25;;;;;;;4.40;1.63;;;6.40;99.90;;;;;;4953454;29;20126;-62
2021/12/02 10:20:32;;;;;;;6.13;1.80;;;6.60;99.90;;;;;;4951129;28;20035;-62
2021/12/02 10:23:04;;;;;;;3.88;0.95;;;6.60;99.90;;;;;;4953545;29;20031;-62
2021/12/02 10:25:31;;;;;;;5.90;1.15;;;6.50;99.90;;;;;;4952339;29;20484;-61
2021/12/02 10:28:03;;;;;;;5.93;1.25;;;6.30;99.90;;;;;;4953552;29;20047;-62
2021/12/02 10:30:29;;;;;;;2.08;1.00;;;6.10;99.90;;;;;;4952707;29;20031;-62
2021/12/02 10:32:55;;;;;;;2.10;1.00;;;6.20;99.90;;;;;;4953484;29;20118;-62
2021/12/02 10:35:49;;;;;;;1.38;0.77;;;6.00;99.90;;;;;;4952319;29;20043;-62
2021/12/02 10:38:45;;;;;;;4.78;1.33;;;6.20;99.90;;;;;;4952772;29;20439;-78
2021/12/02 10:41:22;;;;;;;3.75;1.27;;;6.30;99.90;;;;;;4953077;29;20031;-62
2021/12/02 10:44:13;;;;;;;5.40;1.67;;;6.30;99.90;;;;;;4952287;29;20035;-61
2021/12/02 10:47:01;;;;;;;1.98;1.10;;;6.30;99.90;;;;;;4934416;29;20039;-62
2021/12/02 10:49:29;;;;;;;7.60;1.45;;;6.90;99.90;;;;;;4951253;28;20066;-61
2021/12/02 10:51:58;;;;;;;3.58;1.40;;;8.20;99.90;;;;;;4952941;28;20123;-63
2021/12/02 10:54:27;;;;;;;2.22;1.02;;;8.90;99.90;;;;;;4952461;29;20031;-62
2021/12/02 10:56:56;;;;;;;6.93;1.08;;;10.20;99.90;;;;;;4952657;28;20055;-61
2021/12/02 10:59:32;;;;;;;2.17;1.08;;;11.40;99.90;;;;;;4935497;29;20039;-61
2021/12/02 11:02:19;;;;;;;2.17;0.90;;;12.10;99.90;;;;;;4953441;29;20059;-62
2021/12/02 11:04:48;;;;;;;1.60;1.00;;;11.60;99.90;;;;;;4935744;29;20484;-62
2021/12/02 11:07:27;;;;;;;2.72;1.25;;;11.00;99.90;;;;;;4953523;29;20054;-62
2021/12/02 11:09:54;;;;;;;3.50;0.90;;;10.10;99.90;;;;;;4936340;29;20365;-61
2021/12/02 11:12:25;;;;;;;2.45;0.90;;;9.70;99.90;;;;;;4952310;28;20050;-63
2021/12/02 11:14:53;;;;;;;4.72;1.40;;;9.30;99.90;;;;;;4956508;29;20019;-62
2021/12/02 11:17:19;;;;;;;3.33;0.80;;;8.90;99.90;;;;;;4956090;29;20105;-62
2021/12/02 11:19:48;;;;;;;1.75;0.80;;;8.40;99.90;;;;;;4939664;29;20031;-61
2021/12/02 11:22:17;;;;;;;1.73;0.77;;;8.40;99.90;;;;;;4939461;29;20070;-62
2021/12/02 11:24:45;;;;;;;3.13;0.85;;;8.00;99.90;;;;;;4939233;29;20027;-61
2021/12/02 11:27:38;;;;;;;3.92;0.90;;;8.10;99.90;;;;;;4956322;29;20059;-63
2021/12/02 11:30:09;;;;;;;2.03;1.10;;;7.90;99.90;;;;;;4939445;29;20031;-62
2021/12/02 11:32:46;;;;;;;1.97;0.80;;;7.80;99.90;;;;;;4955758;29;20029;-61
2021/12/02 11:35:31;;;;;;;3.08;1.30;;;7.90;99.90;;;;;;4956276;29;20697;-62
2021/12/02 11:38:01;;;;;;;3.65;0.82;;;7.90;99.90;;;;;;4956345;29;20129;-61
2021/12/02 11:40:30;;;;;;;2.42;1.15;;;7.90;99.90;;;;;;4938340;29;20031;-62
2021/12/02 11:42:56;;;;;;;1.10;0.80;;;8.00;99.90;;;;;;4938825;29;20118;-62
2021/12/02 11:45:24;;;;;;;4.75;0.65;;;8.10;99.90;;;;;;4938344;29;20122;-62
2021/12/02 11:47:51;;;;;;;4.40;1.17;;;8.40;99.90;;;;;;4955627;29;20027;-61
2021/12/02 11:50:19;;;;;;;2.40;0.90;;;8.80;99.90;;;;;;4938437;29;20035;-61
2021/12/02 11:52:45;;;;;;;3.55;0.85;;;9.10;99.90;;;;;;4938427;29;20032;-61
2021/12/02 11:55:25;;;;;;;1.13;0.70;;;9.80;99.90;;;;;;4955732;29;20028;-60
2021/12/02 11:57:52;;;;;;;3.60;0.88;;;11.00;99.90;;;;;;4955598;28;20158;-61
2021/12/02 12:00:21;;;;;;;2.45;0.77;;;12.20;99.90;;;;;;4955905;29;20428;-61
2021/12/02 12:02:55;;;;;;;3.45;1.90;;;13.40;99.90;;;;;;4955768;29;20031;-60
2021/12/02 12:05:25;;;;;;;1.75;0.88;;;14.30;98.40;;;;;;4955474;29;20035;-80
2021/12/02 12:07:51;;;;;;;2.25;0.70;;;13.50;95.90;;;;;;4938422;29;20126;-62
2021/12/02 12:10:25;;;;;;;1.40;0.60;;;12.50;96.70;;;;;;4954140;28;20023;-62
2021/12/02 12:12:53;;;;;;;1.20;0.40;;;11.50;97.90;;;;;;4961737;28;20384;-63
2021/12/02 12:15:33;;;;;;;0.63;0.50;;;10.90;99.60;;;;;;4954575;28;20162;-62
2021/12/02 12:18:01;;;;;;;2.05;0.60;;;10.70;99.80;;;;;;4954372;29;20042;-63
2021/12/02 12:20:59;;;;;;;2.72;0.65;;;10.00;99.90;;;;;;4953618;29;20037;-62
2021/12/02 12:23:40;;;;;;;3.67;0.88;;;9.10;99.90;;;;;;4953694;29;20028;-63
2021/12/02 12:26:26;;;;;;;2.47;1.02;;;9.00;99.90;;;;;;4953618;28;20134;-63
2021/12/02 12:29:07;;;;;;;3.63;1.00;;;8.50;99.90;;;;;;4954152;29;20179;-61
2021/12/02 12:31:42;;;;;;;2.23;0.50;;;8.60;99.90;;;;;;4936263;29;20186;-62
2021/12/02 12:34:41;;;;;;;2.47;1.10;;;8.50;99.90;;;;;;4970507;28;20031;-61
2021/12/02 12:37:21;;;;;;;1.45;1.23;;;8.10;99.90;;;;;;4963719;28;20481;-60
2021/12/02 12:40:12;;;;;;;1.65;0.60;;;8.00;99.90;;;;;;4955758;28;20054;-62
2021/12/02 12:43:06;;;;;;;2.25;0.90;;;7.90;99.90;;;;;;4973341;28;20493;-67
2021/12/02 12:45:42;;;;;;;4.68;1.23;;;7.90;99.90;;;;;;4960424;28;20046;-60
2021/12/02 12:48:10;;;;;;;1.40;0.63;;;8.00;99.90;;;;;;4970139;28;20038;-62
2021/12/02 12:50:39;;;;;;;9.27;1.48;;;10.00;99.90;;;;;;4972323;28;20039;-61
2021/12/02 12:53:05;;;;;;;3.88;1.35;;;12.00;99.90;;;;;;4954929;28;20063;-60
2021/12/02 12:55:49;;;;;;;3.30;1.50;;;12.90;99.90;;;;;;4962306;28;20484;-61
2021/12/02 12:58:19;;;;;;;2.40;0.93;;;12.60;99.90;;;;;;4963783;28;20101;-61
2021/12/02 13:00:56;;;;;;;3.97;0.90;;;11.60;99.90;;;;;;4955024;28;20059;-62
2021/12/02 13:03:43;;;;;;;7.00;1.42;;;10.10;99.90;;;;;;4954857;28;20066;-75
2021/12/02 13:06:21;;;;;;;1.60;1.13;;;9.30;99.90;;;;;;4972731;28;20330;-62
2021/12/02 13:08:50;;;;;;;2.75;0.90;;;8.80;99.90;;;;;;4951648;28;20034;-62
2021/12/02 13:11:19;;;;;;;2.28;0.88;;;8.60;99.90;;;;;;4942227;29;20035;-62
2021/12/02 13:13:47;;;;;;;1.73;0.98;;;8.30;99.90;;;;;;4948814;28;20122;-61
2021/12/02 13:16:16;;;;;;;3.45;0.77;;;8.30;99.90;;;;;;4940163;29;20039;-63
2021/12/02 13:18:46;;;;;;;1.38;1.05;;;8.20;99.90;;;;;;4966236;28;20038;-61
2021/12/02 13:21:30;;;;;;;3.20;0.73;;;8.40;99.90;;;;;;4973526;28;20030;-61
2021/12/02 13:23:57;;;;;;;3.90;0.88;;;8.40;99.90;;;;;;4955282;28;20057;-62
2021/12/02 13:26:31;;;;;;;4.15;1.00;;;8.60;99.90;;;;;;4926656;29;20103;-69
2021/12/02 13:29:01;;;;;;;1.95;0.50;;;8.50;99.90;;;;;;4932445;29;20043;-61